METAR Data
IDs: Format: Raw Decoded Include TAF

Data at: 1905 UTC 26 Sep 2021

LIME 261850Z 23005KT 8000 BKN010 18/17 Q1019 NOSIG